< Typhoon 200708 2007 Season Typhoon 200710 >
Typhoon 200709 (FITOW)
General InformationTrack Information on Google MapsDetailed Wind InformationAccess Analytics MapList of All Images || NewsDisaster Info.WeblogTrackbackTyphoon FrontResourceGoogle EarthGE AnimationAtom FeedGeoJSON
Detalied Best Track (Time Zone = UTC)
Year Month Day Hour Lat. Long. Pressure (hPa) Wind (kt) Class Image Chart
2007 8 27 18 16.7 152.5 1004 0 2 Image Chart
2007 8 28 00 17.4 153.1 1006 0 2 Image Chart
2007 8 28 06 18.3 154.1 1004 0 2 Image Chart
2007 8 28 12 19.2 154.8 1002 0 2 Image Chart
2007 8 28 18 20.0 155.3 1002 0 2 Image Chart
2007 8 29 00 21.0 155.7 1000 35 3 Image Chart
2007 8 29 06 21.7 156.1 996 40 3 Image Chart
2007 8 29 12 22.4 156.8 985 50 4 Image Chart
2007 8 29 18 23.4 156.9 980 55 4 Image Chart
2007 8 30 00 24.0 156.9 975 60 4 Image Chart
2007 8 30 06 24.5 157.0 975 60 4 Image Chart
2007 8 30 12 25.8 156.9 970 65 5 Image Chart
2007 8 30 18 26.3 156.0 970 65 5 Image Chart
2007 8 31 00 26.5 155.2 965 70 5 Image Chart
2007 8 31 06 27.0 154.8 965 70 5 Image Chart
2007 8 31 12 27.5 153.9 965 70 5 Image Chart
2007 8 31 18 27.7 153.2 970 65 5 Image Chart
2007 9 1 00 28.0 152.3 970 65 5 Image Chart
2007 9 1 06 28.0 151.7 970 65 5 Image Chart
2007 9 1 12 27.9 150.8 970 65 5 Image Chart
2007 9 1 18 27.8 150.4 970 65 5 Image Chart
2007 9 2 00 27.6 149.8 970 65 5 Image Chart
2007 9 2 06 27.3 148.8 970 65 5 Image Chart
2007 9 2 12 27.1 148.3 970 65 5 Image Chart
2007 9 2 18 27.0 147.7 970 65 5 Image Chart
2007 9 3 00 26.9 147.2 970 65 5 Image Chart
2007 9 3 06 27.1 146.5 970 65 5 Image Chart
2007 9 3 12 27.2 145.7 970 60 4 Image Chart
2007 9 3 15 27.3 145.2 970 60 4 Image Chart
2007 9 3 18 27.6 144.4 970 60 4 Image Chart
2007 9 3 21 27.6 143.8 970 60 4 Image Chart
2007 9 4 00 27.6 143.4 970 60 4 Image Chart
2007 9 4 03 27.7 142.9 970 60 4 Image Chart
2007 9 4 06 27.8 142.5 970 60 4 Image Chart
2007 9 4 09 27.9 142.0 970 60 4 Image Chart
2007 9 4 12 28.0 141.5 970 60 4 Image Chart
2007 9 4 15 28.3 141.1 970 60 4 Image Chart
2007 9 4 18 28.5 140.7 970 60 4 Image Chart
2007 9 4 21 28.8 140.4 970 65 5 Image Chart
2007 9 5 00 29.2 140.0 965 70 5 Image Chart
2007 9 5 03 29.5 139.5 965 70 5 Image Chart
2007 9 5 06 29.8 139.3 965 70 5 Image Chart
2007 9 5 09 30.0 139.2 965 70 5 Image Chart
2007 9 5 12 30.2 138.9 965 70 5 Image Chart
2007 9 5 15 30.5 138.8 965 70 5 Image Chart
2007 9 5 18 30.8 138.6 965 70 5 Image Chart
2007 9 5 21 31.3 138.4 965 70 5 Image Chart
2007 9 6 00 32.0 138.4 965 70 5 Image Chart
2007 9 6 03 32.5 138.5 965 70 5 Image Chart
2007 9 6 06 33.1 138.5 965 70 5 Image Chart
2007 9 6 09 33.6 138.6 965 70 5 Image Chart
2007 9 6 12 34.1 138.7 965 70 5 Image Chart
2007 9 6 14 34.4 138.8 970 65 5 Image Chart
2007 9 6 15 34.8 138.9 970 65 5 Image Chart
2007 9 6 18 35.6 139.2 970 65 5 Image Chart
2007 9 6 21 36.3 139.5 980 60 4 Image Chart
2007 9 7 00 37.3 139.9 985 55 4 Image Chart
2007 9 7 03 38.7 140.3 988 55 4 Image Chart
2007 9 7 06 39.8 140.1 988 55 4 Image Chart
2007 9 7 09 40.7 139.9 990 50 4 Image Chart
2007 9 7 12 41.1 140.2 992 45 3 Image Chart
2007 9 7 15 41.6 140.7 992 45 3 Image Chart
2007 9 7 18 42.4 140.7 994 40 3 Image Chart
2007 9 7 21 43.1 141.0 996 35 3 Image Chart
2007 9 8 00 43.4 141.0 998 0 6 Image Chart
Japan Meteorological Agency Best Track Data | Correction Date : 2007-12-07
< Typhoon 200708 2007 Season Typhoon 200710 >

Help